Résultats

Prom'Swim Nice:5Km FFN. Édition 2016.

5 Km
11/09/2016 à 08:00:00 - NICE (6)
103 arrivant(e)s.


 
Les autres classements de cet évènement




Place▲ Temps Dossard Nom Prenom Categ #Categ Sexe #Sexe ClubVit Moy Diplôme Partager
1 01:11:01 143 GRANGEON LARA 1834F 1 F 1 ONN4.22
2 01:11:01 104 ALINOT STEPHANE 3549M 1 M 1 LA SEMEUSE4.22
3 01:16:20 129 CHANDIEU PIERRE 1834M 1 M 2 ONN3.93
4 01:16:27 134 CROSETTI JULIEN 1834M 2 M 3 ONN3.92
5 01:17:20 108 BACHELIER MATHIAS 1834M 3 M 4 ONN3.88
6 01:17:24 187 SARMAN ROMAIN 1617M 1 M 5 SAINT RAPHAEL NATATION3.88
7 01:17:27 113 BAUDOIN AXEL 1617M 2 M 6 ONN3.87
8 01:18:35 109 BARBIER ELIO 1617M 3 M 7 ONN3.82
9 01:18:46 175 ODENT SEBASTIEN 1617M 4 M 8 ONN3.81
10 01:20:09 186 SALCLER LADISLAS 1617M 5 M 9 ONN3.74
11 01:20:53 151 HANSEN EMIL 1834M 4 M 10 ONN3.71
12 01:21:16 170 MONNERET SEBASTIEN 1834M 5 M 11 ONN3.69
13 01:21:19 173 MUTAMBAYI JOCELYN 1617M 6 M 12 ONN3.69
14 01:21:20 180 PETIT ROMANE 1617F 1 F 2 ONN3.69
15 01:21:37 154 JACQUES LUCAS J1M 1 M 13 CERCLE DES NAGEURS ANTIBES3.68
16 01:21:41 106 AUGER THIBAULT J1M 2 M 14 ONN3.67
17 01:22:15 157 KOPENEC THOMAS 1834M 6 M 15 ONN3.65
18 01:22:30 152 HERMET-CHALLESSIN THIPHAINE J1F 1 F 3 ONN3.64
19 01:22:51 127 CARLES SAMUEL 1834M 7 M 16 MONTPELLIER PAILLADE3.62
20 01:22:54 132 COLOMB JEAN-NICOLAS J1M 3 M 17 ONN3.62
21 01:22:56 169 MAZEAU HUGO J1M 4 M 18 ONN3.62
22 01:24:19 171 MORYOUSEF NATHANIEL J1M 5 M 19 ONN3.56
23 01:24:28 117 BERTRAND THIERRY 50M 1 M 20 AS. SP. MONACO NATATION3.55
24 01:24:34 174 NAHON VALERIE 3549F 1 F 4 NICE LA SEMEUSE3.55
25 01:24:50 167 MABBOUX ISABELLE 1834F 2 F 5 ACBB3.54
26 01:24:52 164 LETTIERI OLIVIER 1834M 8 M 21 ONN3.53
27 01:24:56 139 DEPAY ETHAN J1M 6 M 22 ONN-CF3.53
28 01:27:23 179 PETIT EGLANTINE 1834F 3 F 6 ONN3.43
29 01:27:39 351 WADOUX LAURENT 3549M 2 M 23 ONN3.42
30 01:29:31 145 GROSOLIA LUCAS J1M 7 M 24 ONN-CF3.35
31 01:29:37 172 MULLER FABRICE 50M 2 M 25 4947602123.35
32 01:29:41 135 CUTOVIC BOGDAN 1834M 9 M 26 ONN3.35
33 01:29:49 183 ROCCHIETTA CEDRIC 1834M 10 M 27 ONN3.34
34 01:29:55 107 AUGER VINCENT 1834M 11 M 28 ONN3.34
35 01:30:02 176 PAIN LAETITIA 1617F 2 F 7 ONN3.33
36 01:30:58 131 CHEVALIER MICHEL 50M 3 M 29 SC THIONVILLE3.30
37 01:31:46 119 BONARDO VICTORIA J1F 2 F 8 ONN3.27
38 01:32:24 128 CAUMETTE DAVID 1834M 12 M 30 ONN3.25
39 01:32:32 178 PETIT CORENTIN 1834M 13 M 31 ONN3.24
40 01:32:52 190 SIEGEL TAMARA J1F 3 F 9 ONN3.23
41 01:32:57 198 WILCZYNSKI SYLVIE 3549F 2 F 10 ONN3.23
42 01:33:36 141 FAZINCANI STEPHANE 3549M 3 M 32 ONN3.21
43 01:33:46 105 AMAR ALAIN 3549M 4 M 33 3.20
44 01:33:52 194 THIRIET ARNAUD 3549M 5 M 34 ONN3.20
45 01:34:38 147 GUETTI LUKAS 1617M 7 M 35 ONN3.17
46 01:34:41 120 BOURDIAUX EMILIE J1F 4 F 11 ONN3.17
47 01:34:44 161 LAFAURIE HUGI 1834M 14 M 36 ONN3.17
48 01:34:45 125 CANOVAS LORRIS J1M 8 M 37 ONN3.17
49 01:35:02 101 AICHOUR CHIARA J1F 5 F 12 ONN3.16
50 01:35:19 137 DEMAREST JUSTIN J1M 9 M 38 ONN3.15
51 01:35:40 305 PAZZAGLIA JULIEN 3549M 6 M 39 SODATEC3.14
52 01:35:42 115 BERMOND KATE 3549F 3 F 13 ONN3.13
53 01:35:52 163 LEMESLE HUGO J1M 10 M 40 ONN3.13
54 01:36:18 130 CHAPELET JEANNE 1617F 3 F 14 ONN3.12
55 01:36:56 124 N:Anonyme 124 P:Anonyme 124 50M 4 M 41 JS COULAINES3.09
56 01:37:11 156 KITTEL JEAN-CLAUDE 50M 5 M 42 CERCLE NAGEURS ANTIBES3.09
57 01:37:36 308 PESTEL JEAN-PIERRE 50M 6 M 43 3.07
58 01:38:51 191 SIMEONI JEAN-FRANCOIS 50M 7 M 44 3.03
59 01:39:59 13 BATTISTI FRANCK 50M 8 M 45 UST TRIATHLON SAINT-TROPEZ3.00
60 01:40:01 184 ROUMEGOUS THIMOTHEE J1M 11 M 46 ONN3.00
61 01:40:03 345 VANDENBERGHE MATT J1M 12 M 47 ONN/OLYMPIC NICE NATATION3.00
62 01:40:45 142 GRAC THIBAULT 3549M 7 M 48 CLUB DES NAGEURS DE PARIS2.98
63 01:40:47 177 PANNUTI SANDRO J2M 1 M 49 ONN2.98
64 01:40:49 112 BAUDIN-CHASSIGNEUX CLEMENT J2M 2 M 50 ONN2.98
65 01:41:21 116 BERTRAND PAULINE 1617F 4 F 15 ONN-CF2.96
66 01:41:32 185 SALA MARIE 1834F 4 F 16 2.95
67 01:41:57 149 GUILLOTEAU JULIEN 1834M 15 M 51 ONN2.94
68 01:42:53 155 JANIN JESSE J2M 3 M 52 ONN2.92
69 01:43:08 140 DONZE FRANCOIS 50M 9 M 53 CNA ANTIBES2.91
70 01:43:21 57 DE-VERTEUIL LAURENT 3549M 8 M 54 ONN/ONN2.90
71 01:43:36 288 MAZARGUIL VINCENT 3549M 9 M 55 2.90
72 01:44:06 126 CAPDEVILLE PHILIPPE 50M 10 M 56 MONTPELLIER PAILLADE NATATION2.88
73 01:44:33 67 EL-GHALBZOURI IMAD 1834M 16 M 57 2.87
74 01:45:19 326 SALINGUE ETIENNE 3549M 10 M 58 OLYMPIC NICE NATATION2.85
75 01:45:47 195 VASSALLO QUENTIN J1M 13 M 59 ONN2.84
76 01:45:52 33 CARLO BERTONCELLI 3549M 11 M 60 2.83
77 01:46:36 315 PIERREJEAN JEREMIE 1834M 17 M 61 2.81
78 01:46:56 283 MARRO MATILDA 1834F 5 F 17 2.81
79 01:47:56 199 ZECEVIC STEPHANE 3549M 12 M 62 LNQV/RCF2.78
80 01:50:33 182 REY ALAIN 50M 11 M 63 CERCLE DES NAGEURS CIOTADENS2.71
81 01:52:07 271 LEMASSON MARTIAL 3549M 13 M 64 2.68
82 01:52:35 138 DEPAY CATHERINE 3549F 4 F 18 ONN-CF2.66
83 01:53:20 221 BOURGEAT BERTRAND 50M 12 M 65 RHODIA CLUB NATATION2.65
84 01:54:23 269 LAMBERT ALAIN 50M 13 M 66 2.62
85 01:54:57 102 AICHOUR LEANA J2F 1 F 19 ONN2.61
86 01:54:57 165 LUHERNE CELESTE J2F 2 F 20 ONN2.61
87 01:55:34 103 ALBERTELLI CECILE 50F 1 F 21 DAUPHINS DE GRASSE2.60
88 01:57:16 300 NOYER GERARD 50M 14 M 67 2.56
89 01:59:10 16 BELABBAS RAFIK 3549M 14 M 68 GSEM NICE TRIATHLON2.52
90 01:59:55 189 SAUNIER INES J2F 3 F 22 ONN2.50
91 02:00:06 150 HADJ-ALI ANAIS J2F 4 F 23 ONN2.50
92 02:00:08 188 SASSI CLAUDE 3549M 15 M 69 CERCLE DES NAGEURS ANTIBES2.50
93 02:00:33 27 BOURDEAU THIBAUD 1834M 18 M 70 THALES SERVICES/THALES ALENIA SPACE2.49
94 02:00:49 193 TAVERNIER CLEMENCE J1F 6 F 24 ONN2.48
95 02:00:50 192 SUTOR NICOLE J1F 7 F 25 ONN2.48
96 02:00:51 166 LUHERNE MAELISS J1F 8 F 26 ONN2.48
97 02:00:53 136 D'AMBROSIO ANNA J1F 9 F 27 ONN2.48
98 02:04:19 18 BENMERGUI FRANCK 50M 15 M 71 2.41
99 02:05:52 100 HARYMBAT BENOIT 3549M 16 M 72 2.38
100 02:15:32 110 BARBRY HELENE 50F 2 F 28 DAUPHINS DE GRASSE2.21
101 02:17:22 122 BRUYERE ARTHUR 1834M 19 M 73 ONN2.18